sensor_id;sensor_type;location;lat;lon;timestamp;temperature;humidity
38941;DHT22;43236;47.208;7.518;2023-03-30T00:00:54;13.70;99.90
38941;DHT22;43236;47.208;7.518;2023-03-30T00:03:41;13.80;99.90
38941;DHT22;43236;47.208;7.518;2023-03-30T00:06:28;13.80;99.90
38941;DHT22;43236;47.208;7.518;2023-03-30T00:09:15;13.80;99.90
38941;DHT22;43236;47.208;7.518;2023-03-30T00:12:03;13.80;99.90
38941;DHT22;43236;47.208;7.518;2023-03-30T00:14:50;13.80;99.90
38941;DHT22;43236;47.208;7.518;2023-03-30T00:17:39;13.80;99.90
38941;DHT22;43236;47.208;7.518;2023-03-30T00:20:26;13.80;99.90
38941;DHT22;43236;47.208;7.518;2023-03-30T00:23:16;13.80;99.90
38941;DHT22;43236;47.208;7.518;2023-03-30T00:26:04;13.80;99.90
38941;DHT22;43236;47.208;7.518;2023-03-30T00:28:52;13.80;99.90
38941;DHT22;43236;47.208;7.518;2023-03-30T00:31:39;13.90;99.90
38941;DHT22;43236;47.208;7.518;2023-03-30T00:34:27;13.90;99.90
38941;DHT22;43236;47.208;7.518;2023-03-30T00:37:15;13.80;99.90
38941;DHT22;43236;47.208;7.518;2023-03-30T00:40:02;13.80;99.90
38941;DHT22;43236;47.208;7.518;2023-03-30T00:42:57;13.80;99.90
38941;DHT22;43236;47.208;7.518;2023-03-30T00:45:44;13.80;99.90
38941;DHT22;43236;47.208;7.518;2023-03-30T00:48:33;13.80;99.90
38941;DHT22;43236;47.208;7.518;2023-03-30T00:51:23;13.70;99.90
38941;DHT22;43236;47.208;7.518;2023-03-30T00:54:14;13.70;99.90
38941;DHT22;43236;47.208;7.518;2023-03-30T00:57:02;13.70;99.90
38941;DHT22;43236;47.208;7.518;2023-03-30T00:59:50;13.70;99.90
38941;DHT22;43236;47.208;7.518;2023-03-30T01:02:40;13.60;99.90
38941;DHT22;43236;47.208;7.518;2023-03-30T01:05:30;13.60;99.90
38941;DHT22;43236;47.208;7.518;2023-03-30T01:08:19;13.60;99.90
38941;DHT22;43236;47.208;7.518;2023-03-30T01:11:08;13.60;99.90
38941;DHT22;43236;47.208;7.518;2023-03-30T01:13:58;13.50;99.90
38941;DHT22;43236;47.208;7.518;2023-03-30T01:16:53;13.50;99.90
38941;DHT22;43236;47.208;7.518;2023-03-30T01:20:02;13.50;99.90
38941;DHT22;43236;47.208;7.518;2023-03-30T01:23:15;13.50;99.90
38941;DHT22;43236;47.208;7.518;2023-03-30T01:26:32;13.60;99.90
38941;DHT22;43236;47.208;7.518;2023-03-30T01:29:34;13.50;99.90
38941;DHT22;43236;47.208;7.518;2023-03-30T01:32:42;13.60;99.90
38941;DHT22;43236;47.208;7.518;2023-03-30T01:36:01;13.50;99.90
38941;DHT22;43236;47.208;7.518;2023-03-30T01:39:03;13.50;99.90
38941;DHT22;43236;47.208;7.518;2023-03-30T01:41:57;13.40;99.90
38941;DHT22;43236;47.208;7.518;2023-03-30T01:44:52;13.30;99.90
38941;DHT22;43236;47.208;7.518;2023-03-30T01:47:48;13.30;99.90
38941;DHT22;43236;47.208;7.518;2023-03-30T01:50:39;13.30;99.90
38941;DHT22;43236;47.208;7.518;2023-03-30T01:53:30;13.30;99.90
38941;DHT22;43236;47.208;7.518;2023-03-30T01:56:22;13.30;99.90
38941;DHT22;43236;47.208;7.518;2023-03-30T01:59:17;13.20;99.90
38941;DHT22;43236;47.208;7.518;2023-03-30T02:02:07;13.20;99.90
38941;DHT22;43236;47.208;7.518;2023-03-30T02:04:56;13.20;99.90
38941;DHT22;43236;47.208;7.518;2023-03-30T02:07:49;13.30;99.90
38941;DHT22;43236;47.208;7.518;2023-03-30T02:10:38;13.30;99.90
38941;DHT22;43236;47.208;7.518;2023-03-30T02:13:29;13.30;99.90
38941;DHT22;43236;47.208;7.518;2023-03-30T02:16:21;13.40;99.90
38941;DHT22;43236;47.208;7.518;2023-03-30T02:19:10;13.40;99.90
38941;DHT22;43236;47.208;7.518;2023-03-30T02:21:57;13.40;99.90
38941;DHT22;43236;47.208;7.518;2023-03-30T02:24:47;13.40;99.90
38941;DHT22;43236;47.208;7.518;2023-03-30T02:27:35;13.40;99.90
38941;DHT22;43236;47.208;7.518;2023-03-30T02:30:24;13.40;99.90
38941;DHT22;43236;47.208;7.518;2023-03-30T02:33:23;13.40;99.90
38941;DHT22;43236;47.208;7.518;2023-03-30T02:36:22;13.30;99.90
38941;DHT22;43236;47.208;7.518;2023-03-30T02:39:28;13.30;99.90
38941;DHT22;43236;47.208;7.518;2023-03-30T02:42:32;13.20;99.90
38941;DHT22;43236;47.208;7.518;2023-03-30T02:45:30;13.10;99.90
38941;DHT22;43236;47.208;7.518;2023-03-30T02:48:26;13.10;99.90
38941;DHT22;43236;47.208;7.518;2023-03-30T02:51:27;13.20;99.90
38941;DHT22;43236;47.208;7.518;2023-03-30T02:54:27;13.10;99.90
38941;DHT22;43236;47.208;7.518;2023-03-30T02:57:24;13.10;99.90
38941;DHT22;43236;47.208;7.518;2023-03-30T03:00:16;13.10;99.90
38941;DHT22;43236;47.208;7.518;2023-03-30T03:03:09;13.10;99.90
38941;DHT22;43236;47.208;7.518;2023-03-30T03:05:59;13.10;99.90
38941;DHT22;43236;47.208;7.518;2023-03-30T03:08:47;13.00;99.90
38941;DHT22;43236;47.208;7.518;2023-03-30T03:11:35;13.00;99.90
38941;DHT22;43236;47.208;7.518;2023-03-30T03:14:22;13.00;99.90
38941;DHT22;43236;47.208;7.518;2023-03-30T03:17:11;13.00;99.90
38941;DHT22;43236;47.208;7.518;2023-03-30T03:20:00;13.00;99.90
38941;DHT22;43236;47.208;7.518;2023-03-30T03:22:47;13.00;99.90
38941;DHT22;43236;47.208;7.518;2023-03-30T03:25:34;12.90;99.90
38941;DHT22;43236;47.208;7.518;2023-03-30T03:28:21;13.00;99.90
38941;DHT22;43236;47.208;7.518;2023-03-30T03:31:08;12.90;99.90
38941;DHT22;43236;47.208;7.518;2023-03-30T03:33:57;13.00;99.90
38941;DHT22;43236;47.208;7.518;2023-03-30T03:36:45;13.00;99.90
38941;DHT22;43236;47.208;7.518;2023-03-30T03:39:37;13.00;99.90
38941;DHT22;43236;47.208;7.518;2023-03-30T03:42:24;13.00;99.90
38941;DHT22;43236;47.208;7.518;2023-03-30T03:45:11;13.10;99.90
38941;DHT22;43236;47.208;7.518;2023-03-30T03:47:58;13.00;99.90
38941;DHT22;43236;47.208;7.518;2023-03-30T03:50:48;13.00;99.90
38941;DHT22;43236;47.208;7.518;2023-03-30T03:53:37;13.00;99.90
38941;DHT22;43236;47.208;7.518;2023-03-30T03:56:25;13.00;99.90
38941;DHT22;43236;47.208;7.518;2023-03-30T03:59:12;12.90;99.90
38941;DHT22;43236;47.208;7.518;2023-03-30T04:01:59;12.90;99.90
38941;DHT22;43236;47.208;7.518;2023-03-30T04:04:46;12.80;99.90
38941;DHT22;43236;47.208;7.518;2023-03-30T04:07:33;12.80;99.90
38941;DHT22;43236;47.208;7.518;2023-03-30T04:10:23;12.80;99.90
38941;DHT22;43236;47.208;7.518;2023-03-30T04:13:10;12.80;99.90
38941;DHT22;43236;47.208;7.518;2023-03-30T04:15:57;12.70;99.90
38941;DHT22;43236;47.208;7.518;2023-03-30T04:18:44;12.70;99.90
38941;DHT22;43236;47.208;7.518;2023-03-30T04:21:31;12.70;99.90
38941;DHT22;43236;47.208;7.518;2023-03-30T04:24:18;12.70;99.90
38941;DHT22;43236;47.208;7.518;2023-03-30T04:27:08;12.60;99.90
38941;DHT22;43236;47.208;7.518;2023-03-30T04:29:59;12.60;99.90
38941;DHT22;43236;47.208;7.518;2023-03-30T04:32:47;12.60;99.90
38941;DHT22;43236;47.208;7.518;2023-03-30T04:35:47;12.60;99.90
38941;DHT22;43236;47.208;7.518;2023-03-30T04:38:34;12.60;99.90
38941;DHT22;43236;47.208;7.518;2023-03-30T04:41:21;12.60;99.90
38941;DHT22;43236;47.208;7.518;2023-03-30T04:44:12;12.60;99.90
38941;DHT22;43236;47.208;7.518;2023-03-30T04:46:59;12.60;99.90
38941;DHT22;43236;47.208;7.518;2023-03-30T04:49:46;12.70;99.90
38941;DHT22;43236;47.208;7.518;2023-03-30T04:52:33;12.60;99.90
38941;DHT22;43236;47.208;7.518;2023-03-30T04:55:20;12.60;99.90
38941;DHT22;43236;47.208;7.518;2023-03-30T04:58:10;12.60;99.90
38941;DHT22;43236;47.208;7.518;2023-03-30T05:00:58;12.50;99.90
38941;DHT22;43236;47.208;7.518;2023-03-30T05:03:45;12.50;99.90
38941;DHT22;43236;47.208;7.518;2023-03-30T05:06:32;12.50;99.90
38941;DHT22;43236;47.208;7.518;2023-03-30T05:09:20;12.40;99.90
38941;DHT22;43236;47.208;7.518;2023-03-30T05:12:07;12.40;99.90
38941;DHT22;43236;47.208;7.518;2023-03-30T05:14:54;12.40;99.90
38941;DHT22;43236;47.208;7.518;2023-03-30T05:17:42;12.50;99.90
38941;DHT22;43236;47.208;7.518;2023-03-30T05:20:29;12.50;99.90
38941;DHT22;43236;47.208;7.518;2023-03-30T05:23:17;12.50;99.90
38941;DHT22;43236;47.208;7.518;2023-03-30T05:26:04;12.50;99.90
38941;DHT22;43236;47.208;7.518;2023-03-30T05:28:52;12.60;99.90
38941;DHT22;43236;47.208;7.518;2023-03-30T05:31:39;12.60;99.90
38941;DHT22;43236;47.208;7.518;2023-03-30T05:34:27;12.60;99.90
38941;DHT22;43236;47.208;7.518;2023-03-30T05:37:14;12.70;99.90
38941;DHT22;43236;47.208;7.518;2023-03-30T05:40:01;12.70;99.90
38941;DHT22;43236;47.208;7.518;2023-03-30T05:42:52;12.70;99.90
38941;DHT22;43236;47.208;7.518;2023-03-30T05:45:39;12.70;99.90
38941;DHT22;43236;47.208;7.518;2023-03-30T05:48:28;12.70;99.90
38941;DHT22;43236;47.208;7.518;2023-03-30T05:51:19;12.70;99.90
38941;DHT22;43236;47.208;7.518;2023-03-30T05:54:09;12.70;99.90
38941;DHT22;43236;47.208;7.518;2023-03-30T05:56:57;12.70;99.90
38941;DHT22;43236;47.208;7.518;2023-03-30T05:59:44;12.60;99.90
38941;DHT22;43236;47.208;7.518;2023-03-30T06:02:32;12.60;99.90
38941;DHT22;43236;47.208;7.518;2023-03-30T06:05:19;12.70;99.90
38941;DHT22;43236;47.208;7.518;2023-03-30T06:08:08;12.70;99.90
38941;DHT22;43236;47.208;7.518;2023-03-30T06:10:56;12.80;99.90
38941;DHT22;43236;47.208;7.518;2023-03-30T06:13:43;12.80;99.90
38941;DHT22;43236;47.208;7.518;2023-03-30T06:16:30;12.80;99.90
38941;DHT22;43236;47.208;7.518;2023-03-30T06:19:17;12.80;99.90
38941;DHT22;43236;47.208;7.518;2023-03-30T06:22:04;12.70;99.90
38941;DHT22;43236;47.208;7.518;2023-03-30T06:24:53;12.70;99.90
38941;DHT22;43236;47.208;7.518;2023-03-30T06:27:40;12.70;99.90
38941;DHT22;43236;47.208;7.518;2023-03-30T06:30:27;12.80;99.90
38941;DHT22;43236;47.208;7.518;2023-03-30T06:33:14;12.80;99.90
38941;DHT22;43236;47.208;7.518;2023-03-30T06:36:03;12.90;99.90
38941;DHT22;43236;47.208;7.518;2023-03-30T06:38:50;12.90;99.90
38941;DHT22;43236;47.208;7.518;2023-03-30T06:41:39;12.90;99.90
38941;DHT22;43236;47.208;7.518;2023-03-30T06:44:26;12.90;99.90
38941;DHT22;43236;47.208;7.518;2023-03-30T06:47:13;12.90;99.90
38941;DHT22;43236;47.208;7.518;2023-03-30T06:50:00;12.90;99.90
38941;DHT22;43236;47.208;7.518;2023-03-30T06:52:48;13.00;99.90
38941;DHT22;43236;47.208;7.518;2023-03-30T06:55:35;13.00;99.90
38941;DHT22;43236;47.208;7.518;2023-03-30T06:58:25;13.10;99.90
38941;DHT22;43236;47.208;7.518;2023-03-30T07:01:14;13.20;99.90
38941;DHT22;43236;47.208;7.518;2023-03-30T07:04:01;13.30;99.90
38941;DHT22;43236;47.208;7.518;2023-03-30T07:06:49;13.40;99.90
38941;DHT22;43236;47.208;7.518;2023-03-30T07:09:36;13.40;99.90
38941;DHT22;43236;47.208;7.518;2023-03-30T07:12:24;13.50;99.90
38941;DHT22;43236;47.208;7.518;2023-03-30T07:15:13;13.50;99.90
38941;DHT22;43236;47.208;7.518;2023-03-30T07:18:00;13.50;99.90
38941;DHT22;43236;47.208;7.518;2023-03-30T07:20:47;13.60;99.90
38941;DHT22;43236;47.208;7.518;2023-03-30T07:23:34;13.60;99.90
38941;DHT22;43236;47.208;7.518;2023-03-30T07:26:22;13.70;99.90
38941;DHT22;43236;47.208;7.518;2023-03-30T07:29:09;13.70;99.90
38941;DHT22;43236;47.208;7.518;2023-03-30T07:31:57;13.70;99.90
38941;DHT22;43236;47.208;7.518;2023-03-30T07:34:45;13.80;99.90
38941;DHT22;43236;47.208;7.518;2023-03-30T07:37:32;13.90;99.90
38941;DHT22;43236;47.208;7.518;2023-03-30T07:40:19;14.00;99.90
38941;DHT22;43236;47.208;7.518;2023-03-30T07:43:06;14.10;99.90
38941;DHT22;43236;47.208;7.518;2023-03-30T07:45:53;14.20;99.90
38941;DHT22;43236;47.208;7.518;2023-03-30T07:48:42;14.30;99.90
38941;DHT22;43236;47.208;7.518;2023-03-30T07:51:29;14.30;99.90
38941;DHT22;43236;47.208;7.518;2023-03-30T07:54:16;14.30;99.90
38941;DHT22;43236;47.208;7.518;2023-03-30T07:57:03;14.40;99.90
38941;DHT22;43236;47.208;7.518;2023-03-30T07:59:50;14.30;99.90
38941;DHT22;43236;47.208;7.518;2023-03-30T08:02:37;14.30;99.90
38941;DHT22;43236;47.208;7.518;2023-03-30T08:05:25;14.40;99.90
38941;DHT22;43236;47.208;7.518;2023-03-30T08:08:12;14.40;99.90
38941;DHT22;43236;47.208;7.518;2023-03-30T08:11:00;14.50;99.90
38941;DHT22;43236;47.208;7.518;2023-03-30T08:13:47;14.60;99.90
38941;DHT22;43236;47.208;7.518;2023-03-30T08:16:34;14.70;99.90
38941;DHT22;43236;47.208;7.518;2023-03-30T08:19:23;14.80;99.90
38941;DHT22;43236;47.208;7.518;2023-03-30T08:22:11;14.80;99.90
38941;DHT22;43236;47.208;7.518;2023-03-30T08:24:58;14.90;99.90
38941;DHT22;43236;47.208;7.518;2023-03-30T08:27:46;14.90;99.90
38941;DHT22;43236;47.208;7.518;2023-03-30T08:30:33;14.90;99.90
38941;DHT22;43236;47.208;7.518;2023-03-30T08:33:20;14.90;99.90
38941;DHT22;43236;47.208;7.518;2023-03-30T08:36:08;14.80;99.90
38941;DHT22;43236;47.208;7.518;2023-03-30T08:38:57;14.70;99.90
38941;DHT22;43236;47.208;7.518;2023-03-30T08:44:53;14.50;99.90
38941;DHT22;43236;47.208;7.518;2023-03-30T08:47:44;14.40;99.90
38941;DHT22;43236;47.208;7.518;2023-03-30T08:50:34;14.30;99.90
38941;DHT22;43236;47.208;7.518;2023-03-30T08:53:22;14.20;99.90
38941;DHT22;43236;47.208;7.518;2023-03-30T08:56:15;14.10;99.90
38941;DHT22;43236;47.208;7.518;2023-03-30T08:59:07;14.00;99.90
38941;DHT22;43236;47.208;7.518;2023-03-30T09:02:02;13.90;99.90
38941;DHT22;43236;47.208;7.518;2023-03-30T09:05:02;13.90;99.90
38941;DHT22;43236;47.208;7.518;2023-03-30T09:07:59;13.80;99.90
38941;DHT22;43236;47.208;7.518;2023-03-30T09:10:51;13.80;99.90
38941;DHT22;43236;47.208;7.518;2023-03-30T09:13:42;13.70;99.90
38941;DHT22;43236;47.208;7.518;2023-03-30T09:16:36;13.70;99.90
38941;DHT22;43236;47.208;7.518;2023-03-30T09:19:29;13.70;99.90
38941;DHT22;43236;47.208;7.518;2023-03-30T09:22:19;13.70;99.90
38941;DHT22;43236;47.208;7.518;2023-03-30T09:25:15;13.70;99.90
38941;DHT22;43236;47.208;7.518;2023-03-30T09:28:09;13.80;99.90
38941;DHT22;43236;47.208;7.518;2023-03-30T09:31:02;13.80;99.90
38941;DHT22;43236;47.208;7.518;2023-03-30T09:33:56;13.90;99.90
38941;DHT22;43236;47.208;7.518;2023-03-30T09:36:53;14.10;99.90
38941;DHT22;43236;47.208;7.518;2023-03-30T09:39:42;14.20;99.90
38941;DHT22;43236;47.208;7.518;2023-03-30T09:42:34;14.40;99.90
38941;DHT22;43236;47.208;7.518;2023-03-30T09:45:26;14.50;99.90
38941;DHT22;43236;47.208;7.518;2023-03-30T09:48:15;14.60;99.90
38941;DHT22;43236;47.208;7.518;2023-03-30T09:51:13;14.80;99.90
38941;DHT22;43236;47.208;7.518;2023-03-30T09:54:01;14.90;99.90
38941;DHT22;43236;47.208;7.518;2023-03-30T09:56:53;15.10;99.90
38941;DHT22;43236;47.208;7.518;2023-03-30T09:59:41;15.20;99.90
38941;DHT22;43236;47.208;7.518;2023-03-30T10:02:30;15.20;99.90
38941;DHT22;43236;47.208;7.518;2023-03-30T10:05:20;15.30;99.90
38941;DHT22;43236;47.208;7.518;2023-03-30T10:08:19;15.40;99.90
38941;DHT22;43236;47.208;7.518;2023-03-30T10:11:07;15.50;99.90
38941;DHT22;43236;47.208;7.518;2023-03-30T10:13:56;15.60;99.90
38941;DHT22;43236;47.208;7.518;2023-03-30T10:16:44;15.60;99.90
38941;DHT22;43236;47.208;7.518;2023-03-30T10:19:33;15.70;99.90
38941;DHT22;43236;47.208;7.518;2023-03-30T10:22:21;15.80;99.90
38941;DHT22;43236;47.208;7.518;2023-03-30T10:25:13;15.80;99.90
38941;DHT22;43236;47.208;7.518;2023-03-30T10:28:04;15.90;99.90
38941;DHT22;43236;47.208;7.518;2023-03-30T10:31:02;16.00;99.90
38941;DHT22;43236;47.208;7.518;2023-03-30T10:33:54;16.00;99.90
38941;DHT22;43236;47.208;7.518;2023-03-30T10:36:45;16.10;99.90
38941;DHT22;43236;47.208;7.518;2023-03-30T10:39:37;16.20;99.90
38941;DHT22;43236;47.208;7.518;2023-03-30T10:42:27;16.20;99.90
38941;DHT22;43236;47.208;7.518;2023-03-30T10:45:17;16.20;99.90
38941;DHT22;43236;47.208;7.518;2023-03-30T10:48:28;16.20;99.90
38941;DHT22;43236;47.208;7.518;2023-03-30T10:51:26;16.30;99.90
38941;DHT22;43236;47.208;7.518;2023-03-30T10:54:22;16.30;99.90
38941;DHT22;43236;47.208;7.518;2023-03-30T10:57:15;16.40;99.90
38941;DHT22;43236;47.208;7.518;2023-03-30T11:00:16;16.40;99.90
38941;DHT22;43236;47.208;7.518;2023-03-30T11:03:09;16.40;99.90
38941;DHT22;43236;47.208;7.518;2023-03-30T11:06:03;16.40;99.90
38941;DHT22;43236;47.208;7.518;2023-03-30T11:08:53;16.40;99.80
38941;DHT22;43236;47.208;7.518;2023-03-30T11:11:47;16.30;99.60
38941;DHT22;43236;47.208;7.518;2023-03-30T11:14:42;16.30;99.90
38941;DHT22;43236;47.208;7.518;2023-03-30T11:17:34;16.10;99.70
38941;DHT22;43236;47.208;7.518;2023-03-30T11:20:25;15.90;99.40
38941;DHT22;43236;47.208;7.518;2023-03-30T11:23:19;15.60;99.90
38941;DHT22;43236;47.208;7.518;2023-03-30T11:26:09;15.50;99.90
38941;DHT22;43236;47.208;7.518;2023-03-30T11:29:04;15.50;99.90
38941;DHT22;43236;47.208;7.518;2023-03-30T11:31:58;15.40;99.90
38941;DHT22;43236;47.208;7.518;2023-03-30T11:34:53;15.30;99.90
38941;DHT22;43236;47.208;7.518;2023-03-30T11:37:47;15.20;99.90
38941;DHT22;43236;47.208;7.518;2023-03-30T11:40:41;15.10;99.90
38941;DHT22;43236;47.208;7.518;2023-03-30T11:43:29;15.10;99.90
38941;DHT22;43236;47.208;7.518;2023-03-30T11:46:21;15.10;99.90
38941;DHT22;43236;47.208;7.518;2023-03-30T11:49:26;15.00;99.90
38941;DHT22;43236;47.208;7.518;2023-03-30T11:52:25;14.90;99.90
38941;DHT22;43236;47.208;7.518;2023-03-30T11:55:30;14.80;99.90
38941;DHT22;43236;47.208;7.518;2023-03-30T11:58:28;14.70;99.90
38941;DHT22;43236;47.208;7.518;2023-03-30T12:01:27;14.60;99.90
38941;DHT22;43236;47.208;7.518;2023-03-30T12:04:22;14.50;99.90
38941;DHT22;43236;47.208;7.518;2023-03-30T12:07:20;14.40;99.90
38941;DHT22;43236;47.208;7.518;2023-03-30T12:10:16;14.20;99.90
38941;DHT22;43236;47.208;7.518;2023-03-30T12:13:04;14.10;99.90
38941;DHT22;43236;47.208;7.518;2023-03-30T12:15:56;14.10;99.90
38941;DHT22;43236;47.208;7.518;2023-03-30T12:18:57;14.10;99.90
38941;DHT22;43236;47.208;7.518;2023-03-30T12:21:52;14.20;99.90
38941;DHT22;43236;47.208;7.518;2023-03-30T12:24:45;14.20;99.90
38941;DHT22;43236;47.208;7.518;2023-03-30T12:27:34;14.30;99.90
38941;DHT22;43236;47.208;7.518;2023-03-30T12:30:25;14.30;99.90
38941;DHT22;43236;47.208;7.518;2023-03-30T12:33:16;14.40;99.90
38941;DHT22;43236;47.208;7.518;2023-03-30T12:36:21;14.50;99.90
38941;DHT22;43236;47.208;7.518;2023-03-30T12:39:15;14.60;99.90
38941;DHT22;43236;47.208;7.518;2023-03-30T12:42:06;14.70;99.90
38941;DHT22;43236;47.208;7.518;2023-03-30T12:45:08;14.60;99.90
38941;DHT22;43236;47.208;7.518;2023-03-30T12:48:11;14.70;99.90
38941;DHT22;43236;47.208;7.518;2023-03-30T12:51:10;14.60;99.90
38941;DHT22;43236;47.208;7.518;2023-03-30T12:54:10;14.60;99.90
38941;DHT22;43236;47.208;7.518;2023-03-30T12:57:10;14.60;99.90
38941;DHT22;43236;47.208;7.518;2023-03-30T13:03:45;14.90;99.90
38941;DHT22;43236;47.208;7.518;2023-03-30T13:06:37;15.00;99.90
38941;DHT22;43236;47.208;7.518;2023-03-30T13:09:35;15.10;99.90
38941;DHT22;43236;47.208;7.518;2023-03-30T13:12:39;15.10;99.90
38941;DHT22;43236;47.208;7.518;2023-03-30T13:15:40;15.20;99.90
38941;DHT22;43236;47.208;7.518;2023-03-30T13:18:50;15.20;99.90
38941;DHT22;43236;47.208;7.518;2023-03-30T13:21:45;15.20;99.90
38941;DHT22;43236;47.208;7.518;2023-03-30T13:24:38;15.20;99.90
38941;DHT22;43236;47.208;7.518;2023-03-30T13:27:29;15.20;99.90
38941;DHT22;43236;47.208;7.518;2023-03-30T13:30:18;15.20;99.90
38941;DHT22;43236;47.208;7.518;2023-03-30T13:33:10;15.20;99.90
38941;DHT22;43236;47.208;7.518;2023-03-30T13:36:05;15.30;99.90
38941;DHT22;43236;47.208;7.518;2023-03-30T13:39:10;15.40;99.90
38941;DHT22;43236;47.208;7.518;2023-03-30T13:42:10;15.40;99.90
38941;DHT22;43236;47.208;7.518;2023-03-30T13:45:07;15.60;99.90
38941;DHT22;43236;47.208;7.518;2023-03-30T13:48:10;15.60;99.90
38941;DHT22;43236;47.208;7.518;2023-03-30T13:51:01;15.70;99.90
38941;DHT22;43236;47.208;7.518;2023-03-30T13:53:51;15.80;99.90
38941;DHT22;43236;47.208;7.518;2023-03-30T13:56:42;15.90;99.90
38941;DHT22;43236;47.208;7.518;2023-03-30T13:59:32;15.90;99.90
38941;DHT22;43236;47.208;7.518;2023-03-30T14:02:22;16.00;99.90
38941;DHT22;43236;47.208;7.518;2023-03-30T14:05:13;16.00;99.90
38941;DHT22;43236;47.208;7.518;2023-03-30T14:08:02;16.00;99.70
38941;DHT22;43236;47.208;7.518;2023-03-30T14:10:55;16.00;98.70
38941;DHT22;43236;47.208;7.518;2023-03-30T14:13:43;16.00;98.20
38941;DHT22;43236;47.208;7.518;2023-03-30T14:16:33;16.10;98.80
38941;DHT22;43236;47.208;7.518;2023-03-30T14:19:24;16.10;98.30
38941;DHT22;43236;47.208;7.518;2023-03-30T14:22:17;16.20;98.00
38941;DHT22;43236;47.208;7.518;2023-03-30T14:25:21;16.20;97.80
38941;DHT22;43236;47.208;7.518;2023-03-30T14:28:12;16.10;97.80
38941;DHT22;43236;47.208;7.518;2023-03-30T14:31:02;16.10;97.30
38941;DHT22;43236;47.208;7.518;2023-03-30T14:33:49;16.20;97.60
38941;DHT22;43236;47.208;7.518;2023-03-30T14:36:36;16.20;97.70
38941;DHT22;43236;47.208;7.518;2023-03-30T14:39:25;16.20;97.60
38941;DHT22;43236;47.208;7.518;2023-03-30T14:42:15;16.20;97.50
38941;DHT22;43236;47.208;7.518;2023-03-30T14:45:02;16.20;97.50
38941;DHT22;43236;47.208;7.518;2023-03-30T14:47:54;16.30;98.20
38941;DHT22;43236;47.208;7.518;2023-03-30T14:50:41;16.40;98.40
38941;DHT22;43236;47.208;7.518;2023-03-30T14:53:29;16.40;97.50
38941;DHT22;43236;47.208;7.518;2023-03-30T14:56:19;16.40;96.70
38941;DHT22;43236;47.208;7.518;2023-03-30T14:59:08;16.50;95.90
38941;DHT22;43236;47.208;7.518;2023-03-30T15:01:56;16.40;95.70
38941;DHT22;43236;47.208;7.518;2023-03-30T15:04:43;16.40;95.50
38941;DHT22;43236;47.208;7.518;2023-03-30T15:07:31;16.40;95.80
38941;DHT22;43236;47.208;7.518;2023-03-30T15:10:21;16.40;95.80
38941;DHT22;43236;47.208;7.518;2023-03-30T15:13:17;16.50;95.70
38941;DHT22;43236;47.208;7.518;2023-03-30T15:16:06;16.50;95.40
38941;DHT22;43236;47.208;7.518;2023-03-30T15:18:58;16.50;95.00
38941;DHT22;43236;47.208;7.518;2023-03-30T15:21:50;16.60;94.70
38941;DHT22;43236;47.208;7.518;2023-03-30T15:24:39;16.60;94.20
38941;DHT22;43236;47.208;7.518;2023-03-30T15:27:27;16.60;93.80
38941;DHT22;43236;47.208;7.518;2023-03-30T15:30:21;16.50;94.00
38941;DHT22;43236;47.208;7.518;2023-03-30T15:33:20;16.60;94.40
38941;DHT22;43236;47.208;7.518;2023-03-30T15:36:11;16.70;94.20
38941;DHT22;43236;47.208;7.518;2023-03-30T15:38:59;16.70;93.70
38941;DHT22;43236;47.208;7.518;2023-03-30T15:41:47;16.70;93.60
38941;DHT22;43236;47.208;7.518;2023-03-30T15:44:36;16.80;93.40
38941;DHT22;43236;47.208;7.518;2023-03-30T15:47:25;16.70;93.00
38941;DHT22;43236;47.208;7.518;2023-03-30T15:50:13;16.60;92.80
38941;DHT22;43236;47.208;7.518;2023-03-30T15:53:00;16.60;92.50
38941;DHT22;43236;47.208;7.518;2023-03-30T15:55:49;16.60;92.80
38941;DHT22;43236;47.208;7.518;2023-03-30T15:58:37;16.70;92.50
38941;DHT22;43236;47.208;7.518;2023-03-30T16:01:37;16.80;92.70
38941;DHT22;43236;47.208;7.518;2023-03-30T16:04:29;16.70;92.30
38941;DHT22;43236;47.208;7.518;2023-03-30T16:07:18;16.80;92.50
38941;DHT22;43236;47.208;7.518;2023-03-30T16:10:10;16.80;92.70
38941;DHT22;43236;47.208;7.518;2023-03-30T16:12:59;16.80;91.60
38941;DHT22;43236;47.208;7.518;2023-03-30T16:15:46;16.80;91.80
38941;DHT22;43236;47.208;7.518;2023-03-30T16:18:33;16.70;91.80
38941;DHT22;43236;47.208;7.518;2023-03-30T16:21:21;16.70;92.10
38941;DHT22;43236;47.208;7.518;2023-03-30T16:24:09;16.70;92.10
38941;DHT22;43236;47.208;7.518;2023-03-30T16:26:56;16.70;92.30
38941;DHT22;43236;47.208;7.518;2023-03-30T16:29:43;16.60;92.20
38941;DHT22;43236;47.208;7.518;2023-03-30T16:32:30;16.50;92.30
38941;DHT22;43236;47.208;7.518;2023-03-30T16:35:17;16.50;92.50
38941;DHT22;43236;47.208;7.518;2023-03-30T16:38:05;16.40;92.50
38941;DHT22;43236;47.208;7.518;2023-03-30T16:40:54;16.40;92.90
38941;DHT22;43236;47.208;7.518;2023-03-30T16:43:42;16.40;92.50
38941;DHT22;43236;47.208;7.518;2023-03-30T16:46:29;16.40;93.30
38941;DHT22;43236;47.208;7.518;2023-03-30T16:49:17;16.40;92.70
38941;DHT22;43236;47.208;7.518;2023-03-30T16:52:06;16.40;92.60
38941;DHT22;43236;47.208;7.518;2023-03-30T16:54:54;16.30;92.60
38941;DHT22;43236;47.208;7.518;2023-03-30T16:57:41;16.20;92.90
38941;DHT22;43236;47.208;7.518;2023-03-30T17:00:30;16.10;92.30
38941;DHT22;43236;47.208;7.518;2023-03-30T17:03:17;16.10;92.40
38941;DHT22;43236;47.208;7.518;2023-03-30T17:06:05;16.10;92.80
38941;DHT22;43236;47.208;7.518;2023-03-30T17:08:52;16.00;92.40
38941;DHT22;43236;47.208;7.518;2023-03-30T17:11:41;16.00;92.50
38941;DHT22;43236;47.208;7.518;2023-03-30T17:14:28;16.00;92.40
38941;DHT22;43236;47.208;7.518;2023-03-30T17:17:15;16.00;92.70
38941;DHT22;43236;47.208;7.518;2023-03-30T17:20:18;15.90;93.40
38941;DHT22;43236;47.208;7.518;2023-03-30T17:23:05;15.80;93.40
38941;DHT22;43236;47.208;7.518;2023-03-30T17:25:53;15.80;93.60
38941;DHT22;43236;47.208;7.518;2023-03-30T17:28:42;15.70;93.30
38941;DHT22;43236;47.208;7.518;2023-03-30T17:31:29;15.60;94.00
38941;DHT22;43236;47.208;7.518;2023-03-30T17:34:16;15.60;93.50
38941;DHT22;43236;47.208;7.518;2023-03-30T17:37:03;15.50;93.40
38941;DHT22;43236;47.208;7.518;2023-03-30T17:39:50;15.50;94.00
38941;DHT22;43236;47.208;7.518;2023-03-30T17:42:37;15.40;93.90
38941;DHT22;43236;47.208;7.518;2023-03-30T17:45:26;15.40;94.70
38941;DHT22;43236;47.208;7.518;2023-03-30T17:48:15;15.40;95.00
38941;DHT22;43236;47.208;7.518;2023-03-30T17:51:02;15.40;95.50
38941;DHT22;43236;47.208;7.518;2023-03-30T17:53:50;15.50;96.00
38941;DHT22;43236;47.208;7.518;2023-03-30T17:56:37;15.30;96.10
38941;DHT22;43236;47.208;7.518;2023-03-30T17:59:24;15.30;95.30
38941;DHT22;43236;47.208;7.518;2023-03-30T18:02:12;15.30;95.00
38941;DHT22;43236;47.208;7.518;2023-03-30T18:05:00;15.30;94.50